Pleasanton, Texas
Current Conditions -  °F | °C
As of 4:55 PM on Monday 24 Nov 2014 (Local Time) from KPEZ Reporting Station
Clear Clear  
Wind Chill: 65°   Ceiling: Unl
Heat Index: 65°   Visibility: 10mi
Dew Point: 30°   Wind: 3mph
Humidity: 27%   Direction: 350°N
Pressure: 30.05"   Gusts: NA
Location:  28.97°N, 98.48°W
Report Text: KPEZ 242255Z AUTO 35003KT 10SM CLR 18/M01 A3005 RMK AO2 T01811011
Loading
Personal Weather Stations






























Interactive Weather Map New forecast layout! Learn more

10-Day Weather Forecast

Advertisements
Track Severe Weather on mobile